sensor_id;sensor_type;location;lat;lon;timestamp;P1;durP1;ratioP1;P2;durP2;ratioP2
43986;SDS011;29650;47.378;8.300;2023-02-24T00:00:44;13.85;;;5.68;;
43986;SDS011;29650;47.378;8.300;2023-02-24T00:03:19;14.70;;;5.03;;
43986;SDS011;29650;47.378;8.300;2023-02-24T00:05:46;15.50;;;5.85;;
43986;SDS011;29650;47.378;8.300;2023-02-24T00:08:14;15.50;;;5.32;;
43986;SDS011;29650;47.378;8.300;2023-02-24T00:10:43;16.10;;;5.43;;
43986;SDS011;29650;47.378;8.300;2023-02-24T00:13:34;13.35;;;5.93;;
43986;SDS011;29650;47.378;8.300;2023-02-24T00:16:22;10.13;;;5.30;;
43986;SDS011;29650;47.378;8.300;2023-02-24T00:18:49;11.57;;;5.57;;
43986;SDS011;29650;47.378;8.300;2023-02-24T00:21:22;13.15;;;5.80;;
43986;SDS011;29650;47.378;8.300;2023-02-24T00:23:49;15.88;;;6.45;;
43986;SDS011;29650;47.378;8.300;2023-02-24T00:26:18;13.00;;;6.22;;
43986;SDS011;29650;47.378;8.300;2023-02-24T00:28:48;12.88;;;5.45;;
43986;SDS011;29650;47.378;8.300;2023-02-24T00:31:18;22.75;;;5.95;;
43986;SDS011;29650;47.378;8.300;2023-02-24T00:33:47;14.95;;;5.35;;
43986;SDS011;29650;47.378;8.300;2023-02-24T00:36:29;14.02;;;5.45;;
43986;SDS011;29650;47.378;8.300;2023-02-24T00:41:27;10.80;;;5.22;;
43986;SDS011;29650;47.378;8.300;2023-02-24T00:43:56;11.13;;;6.18;;
43986;SDS011;29650;47.378;8.300;2023-02-24T00:46:30;14.07;;;5.85;;
43986;SDS011;29650;47.378;8.300;2023-02-24T00:48:59;16.88;;;6.32;;
43986;SDS011;29650;47.378;8.300;2023-02-24T00:51:29;13.88;;;5.72;;
43986;SDS011;29650;47.378;8.300;2023-02-24T00:54:00;14.93;;;6.07;;
43986;SDS011;29650;47.378;8.300;2023-02-24T00:59:15;16.88;;;6.40;;
43986;SDS011;29650;47.378;8.300;2023-02-24T01:01:44;15.25;;;5.68;;
43986;SDS011;29650;47.378;8.300;2023-02-24T01:04:14;12.52;;;6.05;;
43986;SDS011;29650;47.378;8.300;2023-02-24T01:06:43;16.67;;;6.18;;
43986;SDS011;29650;47.378;8.300;2023-02-24T01:09:24;10.27;;;5.30;;
43986;SDS011;29650;47.378;8.300;2023-02-24T01:11:53;11.38;;;5.30;;
43986;SDS011;29650;47.378;8.300;2023-02-24T01:14:42;10.35;;;5.15;;
43986;SDS011;29650;47.378;8.300;2023-02-24T01:17:10;9.40;;;5.00;;
43986;SDS011;29650;47.378;8.300;2023-02-24T01:19:37;9.80;;;5.43;;
43986;SDS011;29650;47.378;8.300;2023-02-24T01:22:05;14.60;;;6.05;;
43986;SDS011;29650;47.378;8.300;2023-02-24T01:27:03;11.00;;;5.72;;
43986;SDS011;29650;47.378;8.300;2023-02-24T01:29:31;9.18;;;4.57;;
43986;SDS011;29650;47.378;8.300;2023-02-24T01:32:03;16.33;;;5.22;;
43986;SDS011;29650;47.378;8.300;2023-02-24T01:34:30;16.33;;;5.22;;
43986;SDS011;29650;47.378;8.300;2023-02-24T01:36:59;8.20;;;5.00;;
43986;SDS011;29650;47.378;8.300;2023-02-24T01:39:26;11.05;;;6.15;;
43986;SDS011;29650;47.378;8.300;2023-02-24T01:41:53;11.18;;;5.38;;
43986;SDS011;29650;47.378;8.300;2023-02-24T01:47:30;12.13;;;6.45;;
43986;SDS011;29650;47.378;8.300;2023-02-24T01:49:58;13.10;;;5.72;;
43986;SDS011;29650;47.378;8.300;2023-02-24T01:52:28;18.10;;;6.18;;
43986;SDS011;29650;47.378;8.300;2023-02-24T01:54:59;13.88;;;6.40;;
43986;SDS011;29650;47.378;8.300;2023-02-24T01:57:32;11.45;;;6.28;;
43986;SDS011;29650;47.378;8.300;2023-02-24T02:00:04;25.10;;;6.60;;
43986;SDS011;29650;47.378;8.300;2023-02-24T02:02:36;19.40;;;6.03;;
43986;SDS011;29650;47.378;8.300;2023-02-24T02:05:06;12.57;;;5.78;;
43986;SDS011;29650;47.378;8.300;2023-02-24T02:07:34;20.13;;;6.15;;
43986;SDS011;29650;47.378;8.300;2023-02-24T02:10:04;12.30;;;6.20;;
43986;SDS011;29650;47.378;8.300;2023-02-24T02:12:34;15.93;;;6.97;;
43986;SDS011;29650;47.378;8.300;2023-02-24T02:15:09;14.02;;;5.50;;
43986;SDS011;29650;47.378;8.300;2023-02-24T02:17:39;9.60;;;4.40;;
43986;SDS011;29650;47.378;8.300;2023-02-24T02:23:26;10.00;;;3.78;;
43986;SDS011;29650;47.378;8.300;2023-02-24T02:26:18;19.42;;;4.47;;
43986;SDS011;29650;47.378;8.300;2023-02-24T02:35:17;8.18;;;4.30;;
43986;SDS011;29650;47.378;8.300;2023-02-24T02:37:49;7.90;;;3.83;;
43986;SDS011;29650;47.378;8.300;2023-02-24T02:40:21;7.88;;;4.70;;
43986;SDS011;29650;47.378;8.300;2023-02-24T02:42:54;14.95;;;5.43;;
43986;SDS011;29650;47.378;8.300;2023-02-24T02:45:26;21.55;;;6.40;;
43986;SDS011;29650;47.378;8.300;2023-02-24T02:47:58;15.60;;;6.93;;
43986;SDS011;29650;47.378;8.300;2023-02-24T02:50:33;15.95;;;6.75;;
43986;SDS011;29650;47.378;8.300;2023-02-24T02:53:03;21.48;;;6.45;;
43986;SDS011;29650;47.378;8.300;2023-02-24T02:55:36;17.77;;;6.78;;
43986;SDS011;29650;47.378;8.300;2023-02-24T02:58:08;12.35;;;6.53;;
43986;SDS011;29650;47.378;8.300;2023-02-24T03:00:40;13.20;;;6.40;;
43986;SDS011;29650;47.378;8.300;2023-02-24T03:03:15;12.88;;;6.10;;
43986;SDS011;29650;47.378;8.300;2023-02-24T03:05:47;16.95;;;6.47;;
43986;SDS011;29650;47.378;8.300;2023-02-24T03:08:20;17.60;;;7.22;;
43986;SDS011;29650;47.378;8.300;2023-02-24T03:10:50;16.90;;;7.03;;
43986;SDS011;29650;47.378;8.300;2023-02-24T03:13:20;17.83;;;7.28;;
43986;SDS011;29650;47.378;8.300;2023-02-24T03:15:49;21.52;;;7.82;;
43986;SDS011;29650;47.378;8.300;2023-02-24T03:18:20;13.00;;;6.90;;
43986;SDS011;29650;47.378;8.300;2023-02-24T03:20:56;14.32;;;6.50;;
43986;SDS011;29650;47.378;8.300;2023-02-24T03:23:31;9.30;;;4.50;;
43986;SDS011;29650;47.378;8.300;2023-02-24T03:26:04;18.70;;;5.80;;
43986;SDS011;29650;47.378;8.300;2023-02-24T03:28:43;11.13;;;4.50;;
43986;SDS011;29650;47.378;8.300;2023-02-24T03:31:17;11.82;;;5.63;;
43986;SDS011;29650;47.378;8.300;2023-02-24T03:33:54;11.95;;;4.18;;
43986;SDS011;29650;47.378;8.300;2023-02-24T03:36:26;11.07;;;4.45;;
43986;SDS011;29650;47.378;8.300;2023-02-24T03:38:53;13.75;;;5.05;;
43986;SDS011;29650;47.378;8.300;2023-02-24T03:41:22;10.02;;;5.32;;
43986;SDS011;29650;47.378;8.300;2023-02-24T03:43:54;13.23;;;5.20;;
43986;SDS011;29650;47.378;8.300;2023-02-24T03:46:23;7.68;;;4.55;;
43986;SDS011;29650;47.378;8.300;2023-02-24T03:48:51;12.57;;;4.45;;
43986;SDS011;29650;47.378;8.300;2023-02-24T03:51:23;11.63;;;5.40;;
43986;SDS011;29650;47.378;8.300;2023-02-24T03:53:55;20.37;;;4.23;;
43986;SDS011;29650;47.378;8.300;2023-02-24T03:56:37;16.35;;;4.82;;
43986;SDS011;29650;47.378;8.300;2023-02-24T03:59:16;17.50;;;7.15;;
43986;SDS011;29650;47.378;8.300;2023-02-24T04:01:55;14.70;;;6.22;;
43986;SDS011;29650;47.378;8.300;2023-02-24T04:04:30;17.65;;;7.22;;
43986;SDS011;29650;47.378;8.300;2023-02-24T04:07:03;22.25;;;8.05;;
43986;SDS011;29650;47.378;8.300;2023-02-24T04:09:38;20.90;;;7.68;;
43986;SDS011;29650;47.378;8.300;2023-02-24T04:12:08;17.33;;;7.90;;
43986;SDS011;29650;47.378;8.300;2023-02-24T04:14:46;19.05;;;7.82;;
43986;SDS011;29650;47.378;8.300;2023-02-24T04:17:16;20.98;;;8.23;;
43986;SDS011;29650;47.378;8.300;2023-02-24T04:19:46;24.25;;;8.82;;
43986;SDS011;29650;47.378;8.300;2023-02-24T04:22:18;18.92;;;9.30;;
43986;SDS011;29650;47.378;8.300;2023-02-24T04:24:49;23.75;;;8.93;;
43986;SDS011;29650;47.378;8.300;2023-02-24T04:27:19;39.83;;;9.55;;
43986;SDS011;29650;47.378;8.300;2023-02-24T04:29:49;20.05;;;8.05;;
43986;SDS011;29650;47.378;8.300;2023-02-24T04:32:20;24.80;;;9.57;;
43986;SDS011;29650;47.378;8.300;2023-02-24T04:34:50;18.67;;;8.43;;
43986;SDS011;29650;47.378;8.300;2023-02-24T04:37:18;34.58;;;8.15;;
43986;SDS011;29650;47.378;8.300;2023-02-24T04:39:47;12.25;;;6.93;;
43986;SDS011;29650;47.378;8.300;2023-02-24T04:42:15;11.80;;;6.75;;
43986;SDS011;29650;47.378;8.300;2023-02-24T04:44:46;10.65;;;6.25;;
43986;SDS011;29650;47.378;8.300;2023-02-24T04:47:13;12.75;;;6.28;;
43986;SDS011;29650;47.378;8.300;2023-02-24T04:49:40;10.20;;;6.50;;
43986;SDS011;29650;47.378;8.300;2023-02-24T04:52:08;11.35;;;7.38;;
43986;SDS011;29650;47.378;8.300;2023-02-24T04:54:37;12.95;;;7.32;;
43986;SDS011;29650;47.378;8.300;2023-02-24T04:57:04;13.65;;;5.97;;
43986;SDS011;29650;47.378;8.300;2023-02-24T04:59:32;21.65;;;7.93;;
43986;SDS011;29650;47.378;8.300;2023-02-24T05:01:59;16.23;;;7.70;;
43986;SDS011;29650;47.378;8.300;2023-02-24T05:04:26;15.45;;;7.85;;
43986;SDS011;29650;47.378;8.300;2023-02-24T05:09:22;14.27;;;7.35;;
43986;SDS011;29650;47.378;8.300;2023-02-24T05:11:55;12.25;;;6.25;;
43986;SDS011;29650;47.378;8.300;2023-02-24T05:14:24;17.10;;;7.63;;
43986;SDS011;29650;47.378;8.300;2023-02-24T05:16:51;14.52;;;7.13;;
43986;SDS011;29650;47.378;8.300;2023-02-24T05:19:24;14.98;;;6.65;;
43986;SDS011;29650;47.378;8.300;2023-02-24T05:22:08;21.85;;;7.95;;
43986;SDS011;29650;47.378;8.300;2023-02-24T05:24:38;14.60;;;7.25;;
43986;SDS011;29650;47.378;8.300;2023-02-24T05:27:07;16.02;;;7.75;;
43986;SDS011;29650;47.378;8.300;2023-02-24T05:29:34;18.05;;;8.32;;
43986;SDS011;29650;47.378;8.300;2023-02-24T05:32:02;19.40;;;7.55;;
43986;SDS011;29650;47.378;8.300;2023-02-24T05:34:30;16.02;;;8.63;;
43986;SDS011;29650;47.378;8.300;2023-02-24T05:36:58;25.33;;;9.18;;
43986;SDS011;29650;47.378;8.300;2023-02-24T05:39:28;25.33;;;8.57;;
43986;SDS011;29650;47.378;8.300;2023-02-24T05:41:55;21.02;;;9.02;;
43986;SDS011;29650;47.378;8.300;2023-02-24T05:44:24;25.80;;;9.65;;
43986;SDS011;29650;47.378;8.300;2023-02-24T05:46:52;27.33;;;9.38;;
43986;SDS011;29650;47.378;8.300;2023-02-24T05:49:23;21.30;;;8.30;;
43986;SDS011;29650;47.378;8.300;2023-02-24T05:51:53;25.77;;;8.30;;
43986;SDS011;29650;47.378;8.300;2023-02-24T05:54:22;20.23;;;8.33;;
43986;SDS011;29650;47.378;8.300;2023-02-24T05:56:53;26.15;;;8.27;;
43986;SDS011;29650;47.378;8.300;2023-02-24T05:59:22;28.10;;;9.02;;
43986;SDS011;29650;47.378;8.300;2023-02-24T06:01:56;20.30;;;8.55;;
43986;SDS011;29650;47.378;8.300;2023-02-24T06:04:24;82.60;;;11.95;;
43986;SDS011;29650;47.378;8.300;2023-02-24T06:07:03;17.83;;;7.25;;
43986;SDS011;29650;47.378;8.300;2023-02-24T06:09:31;26.33;;;8.88;;
43986;SDS011;29650;47.378;8.300;2023-02-24T06:11:59;32.50;;;8.98;;
43986;SDS011;29650;47.378;8.300;2023-02-24T06:14:28;22.98;;;7.63;;
43986;SDS011;29650;47.378;8.300;2023-02-24T06:16:55;27.85;;;9.77;;
43986;SDS011;29650;47.378;8.300;2023-02-24T06:19:24;18.05;;;7.68;;
43986;SDS011;29650;47.378;8.300;2023-02-24T06:21:51;23.35;;;7.68;;
43986;SDS011;29650;47.378;8.300;2023-02-24T06:24:19;17.33;;;8.77;;
43986;SDS011;29650;47.378;8.300;2023-02-24T06:26:46;19.20;;;8.05;;
43986;SDS011;29650;47.378;8.300;2023-02-24T06:29:15;20.42;;;8.30;;
43986;SDS011;29650;47.378;8.300;2023-02-24T06:31:44;21.00;;;8.70;;
43986;SDS011;29650;47.378;8.300;2023-02-24T06:34:12;19.77;;;8.45;;
43986;SDS011;29650;47.378;8.300;2023-02-24T06:36:39;30.48;;;11.80;;
43986;SDS011;29650;47.378;8.300;2023-02-24T06:39:08;23.97;;;11.67;;
43986;SDS011;29650;47.378;8.300;2023-02-24T06:41:38;35.35;;;13.40;;
43986;SDS011;29650;47.378;8.300;2023-02-24T06:44:06;23.88;;;11.45;;
43986;SDS011;29650;47.378;8.300;2023-02-24T06:46:34;31.08;;;12.95;;
43986;SDS011;29650;47.378;8.300;2023-02-24T06:49:02;33.40;;;12.13;;
43986;SDS011;29650;47.378;8.300;2023-02-24T06:51:29;27.42;;;11.95;;
43986;SDS011;29650;47.378;8.300;2023-02-24T06:53:56;31.05;;;12.65;;
43986;SDS011;29650;47.378;8.300;2023-02-24T06:56:24;39.00;;;10.82;;
43986;SDS011;29650;47.378;8.300;2023-02-24T06:58:53;64.32;;;12.38;;
43986;SDS011;29650;47.378;8.300;2023-02-24T07:01:21;43.17;;;10.43;;
43986;SDS011;29650;47.378;8.300;2023-02-24T07:03:50;70.13;;;13.18;;
43986;SDS011;29650;47.378;8.300;2023-02-24T07:06:37;58.28;;;12.77;;
43986;SDS011;29650;47.378;8.300;2023-02-24T07:09:07;41.78;;;12.10;;
43986;SDS011;29650;47.378;8.300;2023-02-24T07:11:37;37.67;;;11.18;;
43986;SDS011;29650;47.378;8.300;2023-02-24T07:14:06;31.92;;;11.98;;
43986;SDS011;29650;47.378;8.300;2023-02-24T07:16:35;24.55;;;9.95;;
43986;SDS011;29650;47.378;8.300;2023-02-24T07:19:06;37.10;;;11.10;;
43986;SDS011;29650;47.378;8.300;2023-02-24T07:21:40;22.40;;;10.48;;
43986;SDS011;29650;47.378;8.300;2023-02-24T07:24:11;26.08;;;11.23;;
43986;SDS011;29650;47.378;8.300;2023-02-24T07:26:44;24.27;;;10.77;;
43986;SDS011;29650;47.378;8.300;2023-02-24T07:29:15;32.85;;;12.55;;
43986;SDS011;29650;47.378;8.300;2023-02-24T07:31:42;21.13;;;9.25;;
43986;SDS011;29650;47.378;8.300;2023-02-24T07:34:09;95.25;;;13.23;;
43986;SDS011;29650;47.378;8.300;2023-02-24T07:39:13;19.88;;;9.25;;
43986;SDS011;29650;47.378;8.300;2023-02-24T07:41:41;14.90;;;7.55;;
43986;SDS011;29650;47.378;8.300;2023-02-24T07:44:11;19.27;;;8.45;;
43986;SDS011;29650;47.378;8.300;2023-02-24T07:46:38;29.05;;;9.02;;
43986;SDS011;29650;47.378;8.300;2023-02-24T07:49:07;33.22;;;9.07;;
43986;SDS011;29650;47.378;8.300;2023-02-24T07:51:39;34.53;;;10.05;;
43986;SDS011;29650;47.378;8.300;2023-02-24T07:54:09;28.85;;;10.20;;
43986;SDS011;29650;47.378;8.300;2023-02-24T07:56:39;38.78;;;9.10;;
43986;SDS011;29650;47.378;8.300;2023-02-24T07:59:13;16.27;;;7.78;;
43986;SDS011;29650;47.378;8.300;2023-02-24T08:01:43;13.98;;;7.88;;
43986;SDS011;29650;47.378;8.300;2023-02-24T08:04:15;16.13;;;8.52;;
43986;SDS011;29650;47.378;8.300;2023-02-24T08:06:45;31.30;;;8.38;;
43986;SDS011;29650;47.378;8.300;2023-02-24T08:09:20;14.95;;;7.90;;
43986;SDS011;29650;47.378;8.300;2023-02-24T08:12:08;18.80;;;8.27;;
43986;SDS011;29650;47.378;8.300;2023-02-24T08:14:35;14.32;;;8.23;;
43986;SDS011;29650;47.378;8.300;2023-02-24T08:17:08;14.25;;;7.72;;
43986;SDS011;29650;47.378;8.300;2023-02-24T08:19:40;17.80;;;7.63;;
43986;SDS011;29650;47.378;8.300;2023-02-24T08:22:09;26.02;;;9.02;;
43986;SDS011;29650;47.378;8.300;2023-02-24T08:24:44;19.20;;;7.82;;
43986;SDS011;29650;47.378;8.300;2023-02-24T08:27:14;21.95;;;7.75;;
43986;SDS011;29650;47.378;8.300;2023-02-24T08:29:44;22.27;;;8.60;;
43986;SDS011;29650;47.378;8.300;2023-02-24T08:32:23;17.40;;;7.85;;
43986;SDS011;29650;47.378;8.300;2023-02-24T08:34:50;26.52;;;8.75;;
43986;SDS011;29650;47.378;8.300;2023-02-24T08:37:22;47.80;;;10.45;;
43986;SDS011;29650;47.378;8.300;2023-02-24T08:39:50;23.52;;;8.70;;
43986;SDS011;29650;47.378;8.300;2023-02-24T08:42:20;13.75;;;7.95;;
43986;SDS011;29650;47.378;8.300;2023-02-24T08:44:55;19.48;;;8.48;;
43986;SDS011;29650;47.378;8.300;2023-02-24T08:47:22;19.80;;;8.60;;
43986;SDS011;29650;47.378;8.300;2023-02-24T08:49:55;15.00;;;7.50;;
43986;SDS011;29650;47.378;8.300;2023-02-24T08:52:25;16.20;;;8.00;;
43986;SDS011;29650;47.378;8.300;2023-02-24T08:54:52;21.10;;;7.75;;
43986;SDS011;29650;47.378;8.300;2023-02-24T08:57:23;20.20;;;8.48;;
43986;SDS011;29650;47.378;8.300;2023-02-24T08:59:51;24.23;;;6.78;;
43986;SDS011;29650;47.378;8.300;2023-02-24T09:02:22;19.15;;;8.40;;
43986;SDS011;29650;47.378;8.300;2023-02-24T09:04:52;12.60;;;7.75;;
43986;SDS011;29650;47.378;8.300;2023-02-24T09:07:22;25.83;;;9.18;;
43986;SDS011;29650;47.378;8.300;2023-02-24T09:09:52;52.17;;;9.93;;
43986;SDS011;29650;47.378;8.300;2023-02-24T09:12:21;15.52;;;7.82;;
43986;SDS011;29650;47.378;8.300;2023-02-24T09:14:49;17.77;;;7.68;;
43986;SDS011;29650;47.378;8.300;2023-02-24T09:17:20;13.88;;;7.75;;
43986;SDS011;29650;47.378;8.300;2023-02-24T09:20:08;19.65;;;8.88;;
43986;SDS011;29650;47.378;8.300;2023-02-24T09:23:20;16.45;;;7.43;;
43986;SDS011;29650;47.378;8.300;2023-02-24T09:25:55;15.57;;;8.68;;
43986;SDS011;29650;47.378;8.300;2023-02-24T09:28:22;18.63;;;8.48;;
43986;SDS011;29650;47.378;8.300;2023-02-24T09:33:20;17.20;;;8.95;;
43986;SDS011;29650;47.378;8.300;2023-02-24T09:35:50;16.23;;;10.00;;
43986;SDS011;29650;47.378;8.300;2023-02-24T09:38:27;16.17;;;9.48;;
43986;SDS011;29650;47.378;8.300;2023-02-24T09:41:18;21.58;;;9.65;;
43986;SDS011;29650;47.378;8.300;2023-02-24T09:43:58;19.13;;;9.00;;
43986;SDS011;29650;47.378;8.300;2023-02-24T09:46:32;30.40;;;11.60;;
43986;SDS011;29650;47.378;8.300;2023-02-24T09:49:04;26.35;;;10.40;;
43986;SDS011;29650;47.378;8.300;2023-02-24T09:51:41;17.77;;;10.27;;
43986;SDS011;29650;47.378;8.300;2023-02-24T09:54:12;19.05;;;10.07;;
43986;SDS011;29650;47.378;8.300;2023-02-24T09:56:43;16.15;;;9.48;;
43986;SDS011;29650;47.378;8.300;2023-02-24T09:59:21;16.40;;;9.57;;
43986;SDS011;29650;47.378;8.300;2023-02-24T10:02:00;18.85;;;10.15;;
43986;SDS011;29650;47.378;8.300;2023-02-24T10:04:41;20.27;;;10.52;;
43986;SDS011;29650;47.378;8.300;2023-02-24T10:07:19;21.60;;;10.63;;
43986;SDS011;29650;47.378;8.300;2023-02-24T10:09:53;20.98;;;9.32;;
43986;SDS011;29650;47.378;8.300;2023-02-24T10:12:44;21.50;;;10.77;;
43986;SDS011;29650;47.378;8.300;2023-02-24T10:15:16;20.73;;;10.52;;
43986;SDS011;29650;47.378;8.300;2023-02-24T10:18:13;19.80;;;10.10;;
43986;SDS011;29650;47.378;8.300;2023-02-24T10:20:52;22.83;;;9.77;;
43986;SDS011;29650;47.378;8.300;2023-02-24T10:23:24;22.10;;;10.38;;
43986;SDS011;29650;47.378;8.300;2023-02-24T10:25:59;15.05;;;10.55;;
43986;SDS011;29650;47.378;8.300;2023-02-24T10:28:32;17.08;;;10.13;;
43986;SDS011;29650;47.378;8.300;2023-02-24T10:31:16;16.33;;;9.48;;
43986;SDS011;29650;47.378;8.300;2023-02-24T10:33:53;17.77;;;10.45;;
43986;SDS011;29650;47.378;8.300;2023-02-24T10:36:22;19.73;;;11.13;;
43986;SDS011;29650;47.378;8.300;2023-02-24T10:38:59;21.33;;;10.57;;
43986;SDS011;29650;47.378;8.300;2023-02-24T10:41:40;23.15;;;11.52;;
43986;SDS011;29650;47.378;8.300;2023-02-24T10:44:18;23.38;;;12.68;;
43986;SDS011;29650;47.378;8.300;2023-02-24T10:46:57;23.63;;;12.48;;
43986;SDS011;29650;47.378;8.300;2023-02-24T10:49:38;24.48;;;11.93;;
43986;SDS011;29650;47.378;8.300;2023-02-24T10:52:08;20.42;;;12.93;;
43986;SDS011;29650;47.378;8.300;2023-02-24T10:54:57;24.30;;;12.48;;
43986;SDS011;29650;47.378;8.300;2023-02-24T10:57:33;23.45;;;11.95;;
43986;SDS011;29650;47.378;8.300;2023-02-24T11:00:15;24.90;;;11.70;;
43986;SDS011;29650;47.378;8.300;2023-02-24T11:03:16;22.80;;;12.35;;
43986;SDS011;29650;47.378;8.300;2023-02-24T11:05:59;21.88;;;11.85;;
43986;SDS011;29650;47.378;8.300;2023-02-24T11:08:55;17.92;;;10.82;;
43986;SDS011;29650;47.378;8.300;2023-02-24T11:11:43;20.83;;;9.68;;
43986;SDS011;29650;47.378;8.300;2023-02-24T11:14:29;21.02;;;11.05;;
43986;SDS011;29650;47.378;8.300;2023-02-24T11:17:19;16.83;;;10.18;;
43986;SDS011;29650;47.378;8.300;2023-02-24T11:19:54;23.98;;;10.80;;
43986;SDS011;29650;47.378;8.300;2023-02-24T11:22:24;18.75;;;10.20;;
43986;SDS011;29650;47.378;8.300;2023-02-24T11:24:54;28.33;;;10.90;;
43986;SDS011;29650;47.378;8.300;2023-02-24T11:27:22;19.45;;;10.00;;
43986;SDS011;29650;47.378;8.300;2023-02-24T11:29:59;24.30;;;10.07;;
43986;SDS011;29650;47.378;8.300;2023-02-24T11:32:44;26.33;;;11.57;;
43986;SDS011;29650;47.378;8.300;2023-02-24T11:38:10;20.42;;;11.05;;
43986;SDS011;29650;47.378;8.300;2023-02-24T11:40:53;20.52;;;11.60;;
43986;SDS011;29650;47.378;8.300;2023-02-24T11:43:29;28.95;;;11.88;;
43986;SDS011;29650;47.378;8.300;2023-02-24T11:46:01;22.65;;;10.43;;
43986;SDS011;29650;47.378;8.300;2023-02-24T11:48:36;24.52;;;11.07;;
43986;SDS011;29650;47.378;8.300;2023-02-24T11:51:09;17.65;;;10.70;;
43986;SDS011;29650;47.378;8.300;2023-02-24T11:53:41;18.83;;;11.73;;
43986;SDS011;29650;47.378;8.300;2023-02-24T11:56:14;23.17;;;11.63;;
43986;SDS011;29650;47.378;8.300;2023-02-24T11:58:47;26.45;;;10.93;;
43986;SDS011;29650;47.378;8.300;2023-02-24T12:01:19;21.58;;;10.52;;
43986;SDS011;29650;47.378;8.300;2023-02-24T12:03:53;22.67;;;10.88;;
43986;SDS011;29650;47.378;8.300;2023-02-24T12:06:28;23.38;;;11.23;;
43986;SDS011;29650;47.378;8.300;2023-02-24T12:09:02;26.52;;;11.18;;
43986;SDS011;29650;47.378;8.300;2023-02-24T12:11:38;24.60;;;12.40;;
43986;SDS011;29650;47.378;8.300;2023-02-24T12:14:28;22.45;;;12.00;;
43986;SDS011;29650;47.378;8.300;2023-02-24T12:17:01;21.15;;;11.32;;
43986;SDS011;29650;47.378;8.300;2023-02-24T12:19:42;21.70;;;11.37;;
43986;SDS011;29650;47.378;8.300;2023-02-24T12:22:32;18.10;;;9.93;;
43986;SDS011;29650;47.378;8.300;2023-02-24T12:25:10;19.88;;;10.52;;
43986;SDS011;29650;47.378;8.300;2023-02-24T12:27:40;20.92;;;10.02;;
43986;SDS011;29650;47.378;8.300;2023-02-24T12:30:28;24.98;;;12.00;;
43986;SDS011;29650;47.378;8.300;2023-02-24T12:33:15;23.23;;;9.93;;
43986;SDS011;29650;47.378;8.300;2023-02-24T12:35:54;18.65;;;9.98;;
43986;SDS011;29650;47.378;8.300;2023-02-24T12:38:31;17.67;;;10.07;;
43986;SDS011;29650;47.378;8.300;2023-02-24T12:41:16;19.50;;;9.35;;
43986;SDS011;29650;47.378;8.300;2023-02-24T12:43:54;23.70;;;10.18;;
43986;SDS011;29650;47.378;8.300;2023-02-24T12:46:28;25.23;;;9.20;;
43986;SDS011;29650;47.378;8.300;2023-02-24T12:51:55;19.88;;;10.35;;
43986;SDS011;29650;47.378;8.300;2023-02-24T12:54:32;19.65;;;9.50;;
43986;SDS011;29650;47.378;8.300;2023-02-24T12:57:06;23.08;;;10.80;;
43986;SDS011;29650;47.378;8.300;2023-02-24T12:59:37;26.38;;;8.93;;
43986;SDS011;29650;47.378;8.300;2023-02-24T13:04:39;16.92;;;8.80;;
43986;SDS011;29650;47.378;8.300;2023-02-24T13:07:24;15.95;;;8.20;;
43986;SDS011;29650;47.378;8.300;2023-02-24T13:10:10;19.33;;;8.45;;
43986;SDS011;29650;47.378;8.300;2023-02-24T13:12:46;16.45;;;8.40;;
43986;SDS011;29650;47.378;8.300;2023-02-24T13:15:19;16.88;;;8.48;;
43986;SDS011;29650;47.378;8.300;2023-02-24T13:17:49;22.23;;;8.43;;
43986;SDS011;29650;47.378;8.300;2023-02-24T13:22:54;24.90;;;7.88;;
43986;SDS011;29650;47.378;8.300;2023-02-24T13:25:25;17.98;;;7.07;;
43986;SDS011;29650;47.378;8.300;2023-02-24T13:27:57;19.42;;;8.50;;
43986;SDS011;29650;47.378;8.300;2023-02-24T13:30:27;19.48;;;8.05;;
43986;SDS011;29650;47.378;8.300;2023-02-24T13:33:17;19.80;;;7.60;;
43986;SDS011;29650;47.378;8.300;2023-02-24T13:35:49;18.42;;;8.18;;
43986;SDS011;29650;47.378;8.300;2023-02-24T13:38:23;24.88;;;7.72;;
43986;SDS011;29650;47.378;8.300;2023-02-24T13:40:52;24.63;;;8.60;;
43986;SDS011;29650;47.378;8.300;2023-02-24T13:43:21;14.57;;;6.97;;
43986;SDS011;29650;47.378;8.300;2023-02-24T13:45:53;19.48;;;8.20;;
43986;SDS011;29650;47.378;8.300;2023-02-24T13:51:35;21.85;;;8.27;;
43986;SDS011;29650;47.378;8.300;2023-02-24T14:00:27;15.05;;;6.78;;
43986;SDS011;29650;47.378;8.300;2023-02-24T14:03:08;13.55;;;6.55;;
43986;SDS011;29650;47.378;8.300;2023-02-24T14:05:38;18.83;;;6.13;;
43986;SDS011;29650;47.378;8.300;2023-02-24T14:08:11;13.85;;;4.97;;
43986;SDS011;29650;47.378;8.300;2023-02-24T14:10:46;21.25;;;4.82;;
43986;SDS011;29650;47.378;8.300;2023-02-24T14:13:21;19.60;;;4.18;;
43986;SDS011;29650;47.378;8.300;2023-02-24T14:15:52;13.30;;;3.72;;
43986;SDS011;29650;47.378;8.300;2023-02-24T14:18:21;20.30;;;4.15;;
43986;SDS011;29650;47.378;8.300;2023-02-24T14:20:50;16.42;;;4.03;;
43986;SDS011;29650;47.378;8.300;2023-02-24T14:23:19;17.90;;;3.13;;
43986;SDS011;29650;47.378;8.300;2023-02-24T14:25:51;14.13;;;3.63;;
43986;SDS011;29650;47.378;8.300;2023-02-24T14:28:22;20.88;;;3.38;;
43986;SDS011;29650;47.378;8.300;2023-02-24T14:30:53;17.45;;;3.08;;
43986;SDS011;29650;47.378;8.300;2023-02-24T14:33:24;11.23;;;3.05;;
43986;SDS011;29650;47.378;8.300;2023-02-24T14:35:54;17.55;;;3.33;;
43986;SDS011;29650;47.378;8.300;2023-02-24T14:38:29;14.93;;;3.08;;
43986;SDS011;29650;47.378;8.300;2023-02-24T14:40:59;17.50;;;3.38;;
43986;SDS011;29650;47.378;8.300;2023-02-24T14:43:26;20.25;;;3.78;;
43986;SDS011;29650;47.378;8.300;2023-02-24T14:45:53;18.33;;;4.32;;
43986;SDS011;29650;47.378;8.300;2023-02-24T14:48:23;17.98;;;3.25;;
43986;SDS011;29650;47.378;8.300;2023-02-24T14:50:51;13.80;;;3.45;;
43986;SDS011;29650;47.378;8.300;2023-02-24T14:55:48;16.02;;;2.88;;
43986;SDS011;29650;47.378;8.300;2023-02-24T14:58:21;16.15;;;4.10;;
43986;SDS011;29650;47.378;8.300;2023-02-24T15:00:52;16.52;;;2.33;;
43986;SDS011;29650;47.378;8.300;2023-02-24T15:03:22;13.10;;;3.72;;
43986;SDS011;29650;47.378;8.300;2023-02-24T15:05:54;14.40;;;3.50;;
43986;SDS011;29650;47.378;8.300;2023-02-24T15:08:26;12.32;;;3.25;;
43986;SDS011;29650;47.378;8.300;2023-02-24T15:10:56;9.77;;;2.42;;
43986;SDS011;29650;47.378;8.300;2023-02-24T15:13:27;14.73;;;2.72;;
43986;SDS011;29650;47.378;8.300;2023-02-24T15:16:01;16.20;;;3.60;;
43986;SDS011;29650;47.378;8.300;2023-02-24T15:18:34;19.08;;;2.88;;
43986;SDS011;29650;47.378;8.300;2023-02-24T15:21:01;19.80;;;3.58;;
43986;SDS011;29650;47.378;8.300;2023-02-24T15:23:30;23.63;;;3.42;;
43986;SDS011;29650;47.378;8.300;2023-02-24T15:25:59;10.38;;;2.67;;
43986;SDS011;29650;47.378;8.300;2023-02-24T15:28:28;12.40;;;3.50;;
43986;SDS011;29650;47.378;8.300;2023-02-24T15:31:00;19.85;;;2.70;;
43986;SDS011;29650;47.378;8.300;2023-02-24T15:33:30;17.08;;;2.35;;
43986;SDS011;29650;47.378;8.300;2023-02-24T15:36:04;17.38;;;3.20;;
43986;SDS011;29650;47.378;8.300;2023-02-24T15:38:36;12.07;;;2.08;;
43986;SDS011;29650;47.378;8.300;2023-02-24T15:43:34;12.32;;;2.45;;
43986;SDS011;29650;47.378;8.300;2023-02-24T15:46:12;15.85;;;3.25;;
43986;SDS011;29650;47.378;8.300;2023-02-24T15:48:50;16.70;;;3.30;;
43986;SDS011;29650;47.378;8.300;2023-02-24T15:51:24;10.32;;;2.88;;
43986;SDS011;29650;47.378;8.300;2023-02-24T15:53:56;18.70;;;3.45;;
43986;SDS011;29650;47.378;8.300;2023-02-24T15:56:25;14.38;;;3.55;;